sensor_id;sensor_type;location;lat;lon;timestamp;P1;durP1;ratioP1;P2;durP2;ratioP2
33104;SDS011;19476;51.448;6.674;2023-02-25T00:01:06;8.60;;;2.08;;
33104;SDS011;19476;51.448;6.674;2023-02-25T00:03:33;8.13;;;1.88;;
33104;SDS011;19476;51.448;6.674;2023-02-25T00:06:01;9.05;;;1.67;;
33104;SDS011;19476;51.448;6.674;2023-02-25T00:08:29;7.22;;;1.50;;
33104;SDS011;19476;51.448;6.674;2023-02-25T00:10:55;8.50;;;1.55;;
33104;SDS011;19476;51.448;6.674;2023-02-25T00:13:25;6.90;;;2.03;;
33104;SDS011;19476;51.448;6.674;2023-02-25T00:15:52;8.57;;;1.63;;
33104;SDS011;19476;51.448;6.674;2023-02-25T00:18:18;7.80;;;1.98;;
33104;SDS011;19476;51.448;6.674;2023-02-25T00:20:44;6.82;;;1.40;;
33104;SDS011;19476;51.448;6.674;2023-02-25T00:23:10;5.25;;;1.58;;
33104;SDS011;19476;51.448;6.674;2023-02-25T00:25:35;8.40;;;1.48;;
33104;SDS011;19476;51.448;6.674;2023-02-25T00:28:01;6.43;;;1.05;;
33104;SDS011;19476;51.448;6.674;2023-02-25T00:30:30;4.57;;;1.23;;
33104;SDS011;19476;51.448;6.674;2023-02-25T00:32:57;5.47;;;1.20;;
33104;SDS011;19476;51.448;6.674;2023-02-25T00:35:23;6.15;;;1.35;;
33104;SDS011;19476;51.448;6.674;2023-02-25T00:37:52;6.03;;;1.08;;
33104;SDS011;19476;51.448;6.674;2023-02-25T00:40:18;8.48;;;1.63;;
33104;SDS011;19476;51.448;6.674;2023-02-25T00:42:44;5.30;;;1.75;;
33104;SDS011;19476;51.448;6.674;2023-02-25T00:45:10;8.85;;;1.48;;
33104;SDS011;19476;51.448;6.674;2023-02-25T00:47:36;8.52;;;1.15;;
33104;SDS011;19476;51.448;6.674;2023-02-25T00:50:04;6.38;;;1.02;;
33104;SDS011;19476;51.448;6.674;2023-02-25T00:52:31;9.60;;;1.92;;
33104;SDS011;19476;51.448;6.674;2023-02-25T00:54:58;4.78;;;1.15;;
33104;SDS011;19476;51.448;6.674;2023-02-25T00:57:23;5.13;;;1.17;;
33104;SDS011;19476;51.448;6.674;2023-02-25T00:59:49;6.72;;;1.13;;
33104;SDS011;19476;51.448;6.674;2023-02-25T01:02:14;6.57;;;1.52;;
33104;SDS011;19476;51.448;6.674;2023-02-25T01:04:40;8.30;;;1.67;;
33104;SDS011;19476;51.448;6.674;2023-02-25T01:07:06;6.68;;;1.10;;
33104;SDS011;19476;51.448;6.674;2023-02-25T01:09:32;7.40;;;1.20;;
33104;SDS011;19476;51.448;6.674;2023-02-25T01:11:58;9.35;;;1.50;;
33104;SDS011;19476;51.448;6.674;2023-02-25T01:14:24;6.60;;;1.17;;
33104;SDS011;19476;51.448;6.674;2023-02-25T01:16:51;6.47;;;1.30;;
33104;SDS011;19476;51.448;6.674;2023-02-25T01:19:19;8.82;;;1.23;;
33104;SDS011;19476;51.448;6.674;2023-02-25T01:21:47;7.20;;;1.73;;
33104;SDS011;19476;51.448;6.674;2023-02-25T01:24:23;10.90;;;1.77;;
33104;SDS011;19476;51.448;6.674;2023-02-25T01:26:54;6.35;;;0.98;;
33104;SDS011;19476;51.448;6.674;2023-02-25T01:29:23;8.15;;;1.42;;
33104;SDS011;19476;51.448;6.674;2023-02-25T01:31:54;6.78;;;1.40;;
33104;SDS011;19476;51.448;6.674;2023-02-25T01:34:22;6.40;;;1.33;;
33104;SDS011;19476;51.448;6.674;2023-02-25T01:36:49;10.05;;;1.40;;
33104;SDS011;19476;51.448;6.674;2023-02-25T01:39:16;6.40;;;1.50;;
33104;SDS011;19476;51.448;6.674;2023-02-25T01:41:43;4.47;;;1.00;;
33104;SDS011;19476;51.448;6.674;2023-02-25T01:46:53;5.35;;;1.10;;
33104;SDS011;19476;51.448;6.674;2023-02-25T01:49:24;6.53;;;1.25;;
33104;SDS011;19476;51.448;6.674;2023-02-25T01:52:24;6.75;;;1.42;;
33104;SDS011;19476;51.448;6.674;2023-02-25T01:54:51;7.05;;;1.50;;
33104;SDS011;19476;51.448;6.674;2023-02-25T01:57:20;11.43;;;1.90;;
33104;SDS011;19476;51.448;6.674;2023-02-25T01:59:46;6.53;;;1.40;;
33104;SDS011;19476;51.448;6.674;2023-02-25T02:02:14;7.53;;;1.25;;
33104;SDS011;19476;51.448;6.674;2023-02-25T02:04:43;5.15;;;1.08;;
33104;SDS011;19476;51.448;6.674;2023-02-25T02:07:14;5.38;;;1.02;;
33104;SDS011;19476;51.448;6.674;2023-02-25T02:09:41;7.43;;;1.35;;
33104;SDS011;19476;51.448;6.674;2023-02-25T02:12:19;5.85;;;1.55;;
33104;SDS011;19476;51.448;6.674;2023-02-25T02:15:04;9.00;;;1.55;;
33104;SDS011;19476;51.448;6.674;2023-02-25T02:36:45;7.78;;;1.90;;
33104;SDS011;19476;51.448;6.674;2023-02-25T02:45:17;8.18;;;1.45;;
33104;SDS011;19476;51.448;6.674;2023-02-25T02:48:08;8.65;;;1.80;;
33104;SDS011;19476;51.448;6.674;2023-02-25T02:50:54;7.45;;;1.98;;
33104;SDS011;19476;51.448;6.674;2023-02-25T02:53:31;6.30;;;1.50;;
33104;SDS011;19476;51.448;6.674;2023-02-25T02:56:04;6.70;;;1.30;;
33104;SDS011;19476;51.448;6.674;2023-02-25T02:58:46;5.15;;;1.30;;
33104;SDS011;19476;51.448;6.674;2023-02-25T03:01:24;6.13;;;1.42;;
33104;SDS011;19476;51.448;6.674;2023-02-25T03:04:13;8.70;;;1.30;;
33104;SDS011;19476;51.448;6.674;2023-02-25T03:06:44;7.43;;;1.35;;
33104;SDS011;19476;51.448;6.674;2023-02-25T03:09:14;5.20;;;1.20;;
33104;SDS011;19476;51.448;6.674;2023-02-25T03:14:10;8.85;;;1.25;;
33104;SDS011;19476;51.448;6.674;2023-02-25T03:16:40;6.70;;;1.05;;
33104;SDS011;19476;51.448;6.674;2023-02-25T03:19:11;7.68;;;1.20;;
33104;SDS011;19476;51.448;6.674;2023-02-25T03:21:51;10.15;;;1.45;;
33104;SDS011;19476;51.448;6.674;2023-02-25T03:24:24;5.30;;;1.38;;
33104;SDS011;19476;51.448;6.674;2023-02-25T03:26:55;12.80;;;2.75;;
33104;SDS011;19476;51.448;6.674;2023-02-25T03:29:21;5.90;;;1.00;;
33104;SDS011;19476;51.448;6.674;2023-02-25T03:31:53;7.25;;;1.15;;
33104;SDS011;19476;51.448;6.674;2023-02-25T03:34:27;6.40;;;0.93;;
33104;SDS011;19476;51.448;6.674;2023-02-25T03:37:05;5.10;;;1.00;;
33104;SDS011;19476;51.448;6.674;2023-02-25T03:39:39;6.32;;;1.48;;
33104;SDS011;19476;51.448;6.674;2023-02-25T03:42:11;7.60;;;1.23;;
33104;SDS011;19476;51.448;6.674;2023-02-25T03:47:16;6.97;;;1.20;;
33104;SDS011;19476;51.448;6.674;2023-02-25T03:49:47;5.65;;;0.95;;
33104;SDS011;19476;51.448;6.674;2023-02-25T03:52:20;7.47;;;1.73;;
33104;SDS011;19476;51.448;6.674;2023-02-25T03:54:52;8.20;;;1.42;;
33104;SDS011;19476;51.448;6.674;2023-02-25T03:57:20;5.05;;;1.00;;
33104;SDS011;19476;51.448;6.674;2023-02-25T03:59:53;8.45;;;1.00;;
33104;SDS011;19476;51.448;6.674;2023-02-25T04:02:30;7.15;;;1.05;;
33104;SDS011;19476;51.448;6.674;2023-02-25T04:04:57;6.82;;;1.05;;
33104;SDS011;19476;51.448;6.674;2023-02-25T04:07:23;6.55;;;1.67;;
33104;SDS011;19476;51.448;6.674;2023-02-25T04:09:49;5.75;;;1.25;;
33104;SDS011;19476;51.448;6.674;2023-02-25T04:12:15;5.10;;;1.00;;
33104;SDS011;19476;51.448;6.674;2023-02-25T04:14:41;6.18;;;1.42;;
33104;SDS011;19476;51.448;6.674;2023-02-25T04:17:07;4.32;;;0.77;;
33104;SDS011;19476;51.448;6.674;2023-02-25T04:19:35;7.32;;;1.05;;
33104;SDS011;19476;51.448;6.674;2023-02-25T04:22:01;5.05;;;1.05;;
33104;SDS011;19476;51.448;6.674;2023-02-25T04:24:29;4.45;;;0.95;;
33104;SDS011;19476;51.448;6.674;2023-02-25T04:26:55;6.93;;;1.20;;
33104;SDS011;19476;51.448;6.674;2023-02-25T04:29:23;9.85;;;1.50;;
33104;SDS011;19476;51.448;6.674;2023-02-25T04:31:50;8.77;;;1.30;;
33104;SDS011;19476;51.448;6.674;2023-02-25T04:34:16;7.35;;;1.08;;
33104;SDS011;19476;51.448;6.674;2023-02-25T04:36:43;5.80;;;1.00;;
33104;SDS011;19476;51.448;6.674;2023-02-25T04:39:10;5.00;;;1.10;;
33104;SDS011;19476;51.448;6.674;2023-02-25T04:41:38;7.90;;;1.10;;
33104;SDS011;19476;51.448;6.674;2023-02-25T04:44:04;4.53;;;1.08;;
33104;SDS011;19476;51.448;6.674;2023-02-25T04:46:31;6.55;;;1.10;;
33104;SDS011;19476;51.448;6.674;2023-02-25T04:48:58;5.55;;;1.17;;
33104;SDS011;19476;51.448;6.674;2023-02-25T04:51:24;5.70;;;0.85;;
33104;SDS011;19476;51.448;6.674;2023-02-25T04:53:50;5.38;;;0.70;;
33104;SDS011;19476;51.448;6.674;2023-02-25T04:56:15;4.43;;;0.82;;
33104;SDS011;19476;51.448;6.674;2023-02-25T04:58:42;4.68;;;1.02;;
33104;SDS011;19476;51.448;6.674;2023-02-25T05:01:09;5.78;;;0.93;;
33104;SDS011;19476;51.448;6.674;2023-02-25T05:03:36;8.52;;;1.45;;
33104;SDS011;19476;51.448;6.674;2023-02-25T05:06:03;6.40;;;0.98;;
33104;SDS011;19476;51.448;6.674;2023-02-25T05:08:29;5.88;;;1.35;;
33104;SDS011;19476;51.448;6.674;2023-02-25T05:10:56;8.80;;;1.05;;
33104;SDS011;19476;51.448;6.674;2023-02-25T05:13:22;8.82;;;1.00;;
33104;SDS011;19476;51.448;6.674;2023-02-25T05:15:48;7.65;;;1.33;;
33104;SDS011;19476;51.448;6.674;2023-02-25T05:18:13;12.45;;;1.40;;
33104;SDS011;19476;51.448;6.674;2023-02-25T05:20:44;5.03;;;0.90;;
33104;SDS011;19476;51.448;6.674;2023-02-25T05:23:11;7.93;;;1.27;;
33104;SDS011;19476;51.448;6.674;2023-02-25T05:25:37;7.13;;;1.00;;
33104;SDS011;19476;51.448;6.674;2023-02-25T05:28:07;6.77;;;1.00;;
33104;SDS011;19476;51.448;6.674;2023-02-25T05:30:35;6.97;;;1.33;;
33104;SDS011;19476;51.448;6.674;2023-02-25T05:33:02;7.80;;;1.25;;
33104;SDS011;19476;51.448;6.674;2023-02-25T05:35:29;6.28;;;0.90;;
33104;SDS011;19476;51.448;6.674;2023-02-25T05:37:56;7.28;;;0.98;;
33104;SDS011;19476;51.448;6.674;2023-02-25T05:40:22;7.60;;;1.20;;
33104;SDS011;19476;51.448;6.674;2023-02-25T05:42:48;8.25;;;1.30;;
33104;SDS011;19476;51.448;6.674;2023-02-25T05:45:14;6.90;;;1.23;;
33104;SDS011;19476;51.448;6.674;2023-02-25T05:47:41;4.38;;;1.02;;
33104;SDS011;19476;51.448;6.674;2023-02-25T05:50:08;7.60;;;1.40;;
33104;SDS011;19476;51.448;6.674;2023-02-25T05:52:34;5.50;;;1.08;;
33104;SDS011;19476;51.448;6.674;2023-02-25T05:55:00;6.43;;;1.38;;
33104;SDS011;19476;51.448;6.674;2023-02-25T05:57:26;5.65;;;1.20;;
33104;SDS011;19476;51.448;6.674;2023-02-25T05:59:52;5.93;;;1.25;;
33104;SDS011;19476;51.448;6.674;2023-02-25T06:02:18;7.10;;;1.20;;
33104;SDS011;19476;51.448;6.674;2023-02-25T06:04:44;4.32;;;0.95;;
33104;SDS011;19476;51.448;6.674;2023-02-25T06:07:10;5.28;;;1.20;;
33104;SDS011;19476;51.448;6.674;2023-02-25T06:09:35;4.30;;;0.90;;
33104;SDS011;19476;51.448;6.674;2023-02-25T06:12:01;6.70;;;1.10;;
33104;SDS011;19476;51.448;6.674;2023-02-25T06:14:27;5.68;;;1.20;;
33104;SDS011;19476;51.448;6.674;2023-02-25T06:16:52;8.73;;;1.20;;
33104;SDS011;19476;51.448;6.674;2023-02-25T06:19:22;9.15;;;1.48;;
33104;SDS011;19476;51.448;6.674;2023-02-25T06:21:51;4.53;;;1.13;;
33104;SDS011;19476;51.448;6.674;2023-02-25T06:24:18;7.30;;;1.30;;
33104;SDS011;19476;51.448;6.674;2023-02-25T06:26:48;7.68;;;1.52;;
33104;SDS011;19476;51.448;6.674;2023-02-25T06:29:14;6.70;;;1.10;;
33104;SDS011;19476;51.448;6.674;2023-02-25T06:31:40;8.68;;;1.50;;
33104;SDS011;19476;51.448;6.674;2023-02-25T06:34:06;5.28;;;1.27;;
33104;SDS011;19476;51.448;6.674;2023-02-25T06:36:31;7.82;;;1.77;;
33104;SDS011;19476;51.448;6.674;2023-02-25T06:38:58;5.97;;;1.25;;
33104;SDS011;19476;51.448;6.674;2023-02-25T06:41:24;4.72;;;0.98;;
33104;SDS011;19476;51.448;6.674;2023-02-25T06:43:51;5.43;;;1.25;;
33104;SDS011;19476;51.448;6.674;2023-02-25T06:46:18;7.25;;;1.50;;
33104;SDS011;19476;51.448;6.674;2023-02-25T06:48:45;8.18;;;1.58;;
33104;SDS011;19476;51.448;6.674;2023-02-25T06:51:11;5.57;;;1.25;;
33104;SDS011;19476;51.448;6.674;2023-02-25T06:53:38;5.28;;;1.25;;
33104;SDS011;19476;51.448;6.674;2023-02-25T06:56:06;5.93;;;0.90;;
33104;SDS011;19476;51.448;6.674;2023-02-25T06:58:33;9.20;;;1.00;;
33104;SDS011;19476;51.448;6.674;2023-02-25T07:00:59;6.40;;;1.02;;
33104;SDS011;19476;51.448;6.674;2023-02-25T07:03:25;6.25;;;1.30;;
33104;SDS011;19476;51.448;6.674;2023-02-25T07:05:51;7.85;;;1.23;;
33104;SDS011;19476;51.448;6.674;2023-02-25T07:08:17;5.82;;;0.93;;
33104;SDS011;19476;51.448;6.674;2023-02-25T07:10:43;5.57;;;1.48;;
33104;SDS011;19476;51.448;6.674;2023-02-25T07:13:09;4.80;;;0.82;;
33104;SDS011;19476;51.448;6.674;2023-02-25T07:15:35;9.73;;;1.45;;
33104;SDS011;19476;51.448;6.674;2023-02-25T07:18:02;7.82;;;1.67;;
33104;SDS011;19476;51.448;6.674;2023-02-25T07:20:28;5.53;;;1.27;;
33104;SDS011;19476;51.448;6.674;2023-02-25T07:22:54;7.45;;;1.73;;
33104;SDS011;19476;51.448;6.674;2023-02-25T07:25:19;4.53;;;1.00;;
33104;SDS011;19476;51.448;6.674;2023-02-25T07:27:45;7.95;;;1.15;;
33104;SDS011;19476;51.448;6.674;2023-02-25T07:30:11;7.63;;;1.60;;
33104;SDS011;19476;51.448;6.674;2023-02-25T07:32:38;5.57;;;1.30;;
33104;SDS011;19476;51.448;6.674;2023-02-25T07:35:04;5.85;;;1.58;;
33104;SDS011;19476;51.448;6.674;2023-02-25T07:37:30;5.40;;;0.90;;
33104;SDS011;19476;51.448;6.674;2023-02-25T07:39:56;5.07;;;1.55;;
33104;SDS011;19476;51.448;6.674;2023-02-25T07:42:25;8.52;;;1.70;;
33104;SDS011;19476;51.448;6.674;2023-02-25T07:44:51;8.18;;;1.20;;
33104;SDS011;19476;51.448;6.674;2023-02-25T07:47:17;7.10;;;1.75;;
33104;SDS011;19476;51.448;6.674;2023-02-25T07:49:44;4.65;;;1.10;;
33104;SDS011;19476;51.448;6.674;2023-02-25T07:52:10;7.47;;;1.35;;
33104;SDS011;19476;51.448;6.674;2023-02-25T07:54:35;8.35;;;1.33;;
33104;SDS011;19476;51.448;6.674;2023-02-25T07:57:01;7.70;;;1.77;;
33104;SDS011;19476;51.448;6.674;2023-02-25T07:59:27;7.40;;;1.35;;
33104;SDS011;19476;51.448;6.674;2023-02-25T08:01:52;9.02;;;2.10;;
33104;SDS011;19476;51.448;6.674;2023-02-25T08:04:18;8.15;;;1.42;;
33104;SDS011;19476;51.448;6.674;2023-02-25T08:06:44;5.22;;;1.52;;
33104;SDS011;19476;51.448;6.674;2023-02-25T08:09:11;7.45;;;2.25;;
33104;SDS011;19476;51.448;6.674;2023-02-25T08:11:38;9.77;;;1.52;;
33104;SDS011;19476;51.448;6.674;2023-02-25T08:14:04;8.32;;;1.55;;
33104;SDS011;19476;51.448;6.674;2023-02-25T08:16:31;9.43;;;1.42;;
33104;SDS011;19476;51.448;6.674;2023-02-25T08:18:57;8.10;;;1.65;;
33104;SDS011;19476;51.448;6.674;2023-02-25T08:21:24;5.90;;;1.52;;
33104;SDS011;19476;51.448;6.674;2023-02-25T08:23:50;4.70;;;1.23;;
33104;SDS011;19476;51.448;6.674;2023-02-25T08:26:17;6.63;;;1.58;;
33104;SDS011;19476;51.448;6.674;2023-02-25T08:28:43;10.00;;;1.83;;
33104;SDS011;19476;51.448;6.674;2023-02-25T08:31:09;9.88;;;1.95;;
33104;SDS011;19476;51.448;6.674;2023-02-25T08:33:36;11.57;;;1.77;;
33104;SDS011;19476;51.448;6.674;2023-02-25T08:36:11;6.45;;;1.30;;
33104;SDS011;19476;51.448;6.674;2023-02-25T08:38:40;4.30;;;1.20;;
33104;SDS011;19476;51.448;6.674;2023-02-25T08:41:06;5.88;;;1.25;;
33104;SDS011;19476;51.448;6.674;2023-02-25T08:43:33;5.18;;;1.38;;
33104;SDS011;19476;51.448;6.674;2023-02-25T08:46:00;5.80;;;1.60;;
33104;SDS011;19476;51.448;6.674;2023-02-25T08:48:26;9.68;;;1.52;;
33104;SDS011;19476;51.448;6.674;2023-02-25T08:50:52;6.70;;;1.88;;
33104;SDS011;19476;51.448;6.674;2023-02-25T08:53:19;7.20;;;1.52;;
33104;SDS011;19476;51.448;6.674;2023-02-25T08:55:45;7.28;;;1.48;;
33104;SDS011;19476;51.448;6.674;2023-02-25T08:58:11;7.68;;;1.35;;
33104;SDS011;19476;51.448;6.674;2023-02-25T09:00:37;10.45;;;1.95;;
33104;SDS011;19476;51.448;6.674;2023-02-25T09:03:04;5.18;;;1.25;;
33104;SDS011;19476;51.448;6.674;2023-02-25T09:05:30;6.68;;;1.65;;
33104;SDS011;19476;51.448;6.674;2023-02-25T09:07:56;5.93;;;1.30;;
33104;SDS011;19476;51.448;6.674;2023-02-25T09:10:23;4.18;;;0.93;;
33104;SDS011;19476;51.448;6.674;2023-02-25T09:12:48;3.75;;;1.00;;
33104;SDS011;19476;51.448;6.674;2023-02-25T09:15:14;3.20;;;1.00;;
33104;SDS011;19476;51.448;6.674;2023-02-25T09:17:40;3.47;;;0.98;;
33104;SDS011;19476;51.448;6.674;2023-02-25T09:20:06;8.20;;;2.28;;
33104;SDS011;19476;51.448;6.674;2023-02-25T09:22:35;6.38;;;1.42;;
33104;SDS011;19476;51.448;6.674;2023-02-25T09:25:03;7.03;;;1.92;;
33104;SDS011;19476;51.448;6.674;2023-02-25T09:27:29;5.82;;;1.23;;
33104;SDS011;19476;51.448;6.674;2023-02-25T09:29:55;8.30;;;1.50;;
33104;SDS011;19476;51.448;6.674;2023-02-25T09:32:21;7.28;;;2.03;;
33104;SDS011;19476;51.448;6.674;2023-02-25T09:34:47;5.45;;;1.50;;
33104;SDS011;19476;51.448;6.674;2023-02-25T09:37:14;5.15;;;1.10;;
33104;SDS011;19476;51.448;6.674;2023-02-25T09:39:40;5.10;;;1.30;;
33104;SDS011;19476;51.448;6.674;2023-02-25T09:42:10;6.20;;;1.65;;
33104;SDS011;19476;51.448;6.674;2023-02-25T09:44:49;5.65;;;1.60;;
33104;SDS011;19476;51.448;6.674;2023-02-25T09:50:34;4.75;;;0.95;;
33104;SDS011;19476;51.448;6.674;2023-02-25T09:55:38;3.70;;;0.73;;
33104;SDS011;19476;51.448;6.674;2023-02-25T10:00:42;5.07;;;0.70;;
33104;SDS011;19476;51.448;6.674;2023-02-25T10:05:56;3.72;;;0.50;;
33104;SDS011;19476;51.448;6.674;2023-02-25T10:16:46;3.20;;;0.70;;
33104;SDS011;19476;51.448;6.674;2023-02-25T10:19:41;3.63;;;0.82;;
33104;SDS011;19476;51.448;6.674;2023-02-25T10:22:23;3.30;;;1.02;;
33104;SDS011;19476;51.448;6.674;2023-02-25T10:25:15;2.20;;;0.68;;
33104;SDS011;19476;51.448;6.674;2023-02-25T10:27:58;5.13;;;0.82;;
33104;SDS011;19476;51.448;6.674;2023-02-25T10:30:46;4.28;;;0.68;;
33104;SDS011;19476;51.448;6.674;2023-02-25T10:33:30;2.20;;;0.70;;
33104;SDS011;19476;51.448;6.674;2023-02-25T10:36:04;2.45;;;0.80;;
33104;SDS011;19476;51.448;6.674;2023-02-25T10:38:41;2.97;;;0.93;;
33104;SDS011;19476;51.448;6.674;2023-02-25T10:41:18;3.40;;;0.63;;
33104;SDS011;19476;51.448;6.674;2023-02-25T10:43:46;4.30;;;0.80;;
33104;SDS011;19476;51.448;6.674;2023-02-25T10:46:37;7.30;;;0.95;;
33104;SDS011;19476;51.448;6.674;2023-02-25T10:49:35;3.83;;;1.10;;
33104;SDS011;19476;51.448;6.674;2023-02-25T10:52:17;4.00;;;0.88;;
33104;SDS011;19476;51.448;6.674;2023-02-25T10:54:45;4.18;;;1.00;;
33104;SDS011;19476;51.448;6.674;2023-02-25T10:57:17;2.80;;;1.00;;
33104;SDS011;19476;51.448;6.674;2023-02-25T10:59:58;3.25;;;1.20;;
33104;SDS011;19476;51.448;6.674;2023-02-25T11:02:26;5.60;;;1.27;;
33104;SDS011;19476;51.448;6.674;2023-02-25T11:04:58;3.30;;;0.65;;
33104;SDS011;19476;51.448;6.674;2023-02-25T11:10:14;3.80;;;0.68;;
33104;SDS011;19476;51.448;6.674;2023-02-25T11:12:44;2.20;;;0.63;;
33104;SDS011;19476;51.448;6.674;2023-02-25T11:18:03;4.18;;;0.77;;
33104;SDS011;19476;51.448;6.674;2023-02-25T11:20:53;4.15;;;0.65;;
33104;SDS011;19476;51.448;6.674;2023-02-25T11:23:27;2.78;;;0.50;;
33104;SDS011;19476;51.448;6.674;2023-02-25T11:26:01;4.07;;;0.65;;
33104;SDS011;19476;51.448;6.674;2023-02-25T11:31:15;2.22;;;0.73;;
33104;SDS011;19476;51.448;6.674;2023-02-25T11:33:45;2.65;;;0.50;;
33104;SDS011;19476;51.448;6.674;2023-02-25T11:36:28;3.20;;;0.60;;
33104;SDS011;19476;51.448;6.674;2023-02-25T11:39:12;1.95;;;0.60;;
33104;SDS011;19476;51.448;6.674;2023-02-25T11:41:47;5.90;;;1.30;;
33104;SDS011;19476;51.448;6.674;2023-02-25T11:49:40;4.35;;;0.65;;
33104;SDS011;19476;51.448;6.674;2023-02-25T11:58:04;3.80;;;0.85;;
33104;SDS011;19476;51.448;6.674;2023-02-25T12:00:34;2.38;;;0.70;;
33104;SDS011;19476;51.448;6.674;2023-02-25T12:14:56;2.75;;;1.02;;
33104;SDS011;19476;51.448;6.674;2023-02-25T12:26:09;11.25;;;4.82;;
33104;SDS011;19476;51.448;6.674;2023-02-25T12:53:53;3.25;;;0.85;;
33104;SDS011;19476;51.448;6.674;2023-02-25T12:59:35;2.88;;;0.70;;
33104;SDS011;19476;51.448;6.674;2023-02-25T13:08:08;3.13;;;0.80;;
33104;SDS011;19476;51.448;6.674;2023-02-25T13:24:44;4.20;;;0.77;;
33104;SDS011;19476;51.448;6.674;2023-02-25T13:30:18;1.95;;;0.60;;
33104;SDS011;19476;51.448;6.674;2023-02-25T13:32:54;5.03;;;1.25;;
33104;SDS011;19476;51.448;6.674;2023-02-25T13:38:34;1.80;;;0.68;;
33104;SDS011;19476;51.448;6.674;2023-02-25T13:46:58;3.08;;;0.73;;
33104;SDS011;19476;51.448;6.674;2023-02-25T13:52:16;2.65;;;0.73;;
33104;SDS011;19476;51.448;6.674;2023-02-25T13:54:57;2.17;;;0.60;;
33104;SDS011;19476;51.448;6.674;2023-02-25T13:57:59;2.47;;;0.60;;
33104;SDS011;19476;51.448;6.674;2023-02-25T14:03:52;1.98;;;0.60;;
33104;SDS011;19476;51.448;6.674;2023-02-25T14:12:07;2.60;;;0.52;;
33104;SDS011;19476;51.448;6.674;2023-02-25T14:23:12;1.88;;;0.40;;
33104;SDS011;19476;51.448;6.674;2023-02-25T14:45:53;3.20;;;0.50;;
33104;SDS011;19476;51.448;6.674;2023-02-25T14:48:26;1.95;;;0.50;;
33104;SDS011;19476;51.448;6.674;2023-02-25T15:10:36;2.85;;;0.60;;
33104;SDS011;19476;51.448;6.674;2023-02-25T15:16:44;2.10;;;0.50;;
33104;SDS011;19476;51.448;6.674;2023-02-25T15:19:39;0.85;;;0.30;;
33104;SDS011;19476;51.448;6.674;2023-02-25T15:27:50;2.85;;;0.50;;
33104;SDS011;19476;51.448;6.674;2023-02-25T15:45:35;1.83;;;0.50;;
33104;SDS011;19476;51.448;6.674;2023-02-25T16:03:46;1.10;;;0.40;;
33104;SDS011;19476;51.448;6.674;2023-02-25T16:14:03;2.03;;;0.82;;
33104;SDS011;19476;51.448;6.674;2023-02-25T16:16:35;3.58;;;1.05;;
33104;SDS011;19476;51.448;6.674;2023-02-25T16:19:09;3.53;;;0.93;;
33104;SDS011;19476;51.448;6.674;2023-02-25T16:21:41;4.10;;;0.73;;
33104;SDS011;19476;51.448;6.674;2023-02-25T16:24:12;3.17;;;0.77;;
33104;SDS011;19476;51.448;6.674;2023-02-25T16:34:41;2.97;;;0.68;;
33104;SDS011;19476;51.448;6.674;2023-02-25T16:40:40;2.15;;;0.68;;
33104;SDS011;19476;51.448;6.674;2023-02-25T16:43:14;1.35;;;0.50;;
33104;SDS011;19476;51.448;6.674;2023-02-25T16:45:55;2.25;;;1.05;;
33104;SDS011;19476;51.448;6.674;2023-02-25T16:48:27;2.50;;;0.68;;
33104;SDS011;19476;51.448;6.674;2023-02-25T16:51:08;2.92;;;0.52;;
33104;SDS011;19476;51.448;6.674;2023-02-25T16:53:44;3.25;;;0.65;;
33104;SDS011;19476;51.448;6.674;2023-02-25T16:56:17;3.50;;;0.95;;
33104;SDS011;19476;51.448;6.674;2023-02-25T17:01:38;2.47;;;0.70;;
33104;SDS011;19476;51.448;6.674;2023-02-25T17:04:20;3.60;;;0.82;;
33104;SDS011;19476;51.448;6.674;2023-02-25T17:12:46;3.65;;;1.17;;
33104;SDS011;19476;51.448;6.674;2023-02-25T17:15:17;4.07;;;0.80;;
33104;SDS011;19476;51.448;6.674;2023-02-25T17:17:53;3.50;;;0.95;;
33104;SDS011;19476;51.448;6.674;2023-02-25T17:20:30;2.08;;;0.60;;
33104;SDS011;19476;51.448;6.674;2023-02-25T17:22:57;2.95;;;1.00;;
33104;SDS011;19476;51.448;6.674;2023-02-25T17:33:03;2.97;;;1.02;;
33104;SDS011;19476;51.448;6.674;2023-02-25T17:35:30;3.17;;;0.98;;
33104;SDS011;19476;51.448;6.674;2023-02-25T17:37:56;2.67;;;0.75;;
33104;SDS011;19476;51.448;6.674;2023-02-25T17:40:26;2.60;;;0.75;;
33104;SDS011;19476;51.448;6.674;2023-02-25T17:45:42;5.35;;;0.60;;
33104;SDS011;19476;51.448;6.674;2023-02-25T17:48:19;1.95;;;0.60;;
33104;SDS011;19476;51.448;6.674;2023-02-25T17:50:50;1.95;;;0.57;;
33104;SDS011;19476;51.448;6.674;2023-02-25T17:56:23;2.97;;;0.60;;
33104;SDS011;19476;51.448;6.674;2023-02-25T17:58:59;2.67;;;0.80;;
33104;SDS011;19476;51.448;6.674;2023-02-25T18:01:40;2.85;;;1.02;;
33104;SDS011;19476;51.448;6.674;2023-02-25T18:04:43;1.98;;;0.90;;
33104;SDS011;19476;51.448;6.674;2023-02-25T18:07:19;2.22;;;1.00;;
33104;SDS011;19476;51.448;6.674;2023-02-25T18:09:45;1.92;;;0.90;;
33104;SDS011;19476;51.448;6.674;2023-02-25T18:12:34;4.22;;;1.13;;
33104;SDS011;19476;51.448;6.674;2023-02-25T18:15:04;2.35;;;0.68;;
33104;SDS011;19476;51.448;6.674;2023-02-25T18:17:46;2.33;;;0.57;;
33104;SDS011;19476;51.448;6.674;2023-02-25T18:23:11;3.13;;;0.90;;
33104;SDS011;19476;51.448;6.674;2023-02-25T18:25:46;5.03;;;0.95;;
33104;SDS011;19476;51.448;6.674;2023-02-25T18:30:43;2.78;;;0.90;;
33104;SDS011;19476;51.448;6.674;2023-02-25T18:33:09;2.70;;;0.90;;
33104;SDS011;19476;51.448;6.674;2023-02-25T18:35:37;4.85;;;1.45;;
33104;SDS011;19476;51.448;6.674;2023-02-25T18:38:06;3.78;;;0.98;;
33104;SDS011;19476;51.448;6.674;2023-02-25T18:40:35;5.47;;;1.35;;
33104;SDS011;19476;51.448;6.674;2023-02-25T18:43:03;3.63;;;0.90;;
33104;SDS011;19476;51.448;6.674;2023-02-25T18:45:31;4.22;;;1.10;;
33104;SDS011;19476;51.448;6.674;2023-02-25T18:47:57;3.22;;;1.00;;
33104;SDS011;19476;51.448;6.674;2023-02-25T18:50:30;3.88;;;1.23;;
33104;SDS011;19476;51.448;6.674;2023-02-25T18:52:56;2.50;;;1.00;;
33104;SDS011;19476;51.448;6.674;2023-02-25T18:55:24;5.35;;;1.05;;
33104;SDS011;19476;51.448;6.674;2023-02-25T18:57:55;2.83;;;0.93;;
33104;SDS011;19476;51.448;6.674;2023-02-25T19:00:22;2.38;;;0.70;;
33104;SDS011;19476;51.448;6.674;2023-02-25T19:02:57;3.85;;;1.08;;
33104;SDS011;19476;51.448;6.674;2023-02-25T19:05:25;3.03;;;1.25;;
33104;SDS011;19476;51.448;6.674;2023-02-25T19:07:52;3.92;;;1.17;;
33104;SDS011;19476;51.448;6.674;2023-02-25T19:10:26;3.88;;;1.10;;
33104;SDS011;19476;51.448;6.674;2023-02-25T19:13:01;3.40;;;1.10;;
33104;SDS011;19476;51.448;6.674;2023-02-25T19:15:29;4.30;;;1.20;;
33104;SDS011;19476;51.448;6.674;2023-02-25T19:17:54;4.40;;;1.20;;
33104;SDS011;19476;51.448;6.674;2023-02-25T19:20:20;3.22;;;1.08;;
33104;SDS011;19476;51.448;6.674;2023-02-25T19:22:48;2.95;;;0.98;;
33104;SDS011;19476;51.448;6.674;2023-02-25T19:25:20;2.00;;;0.95;;
33104;SDS011;19476;51.448;6.674;2023-02-25T19:27:51;3.80;;;0.90;;
33104;SDS011;19476;51.448;6.674;2023-02-25T19:30:20;2.50;;;0.70;;
33104;SDS011;19476;51.448;6.674;2023-02-25T19:32:50;2.90;;;1.23;;
33104;SDS011;19476;51.448;6.674;2023-02-25T19:35:16;3.13;;;1.02;;
33104;SDS011;19476;51.448;6.674;2023-02-25T19:37:42;3.33;;;1.10;;
33104;SDS011;19476;51.448;6.674;2023-02-25T19:40:10;3.42;;;0.90;;
33104;SDS011;19476;51.448;6.674;2023-02-25T19:42:41;3.50;;;1.10;;
33104;SDS011;19476;51.448;6.674;2023-02-25T19:45:09;7.93;;;1.13;;
33104;SDS011;19476;51.448;6.674;2023-02-25T19:47:43;2.28;;;0.90;;
33104;SDS011;19476;51.448;6.674;2023-02-25T19:50:10;4.75;;;1.30;;
33104;SDS011;19476;51.448;6.674;2023-02-25T19:52:36;2.75;;;1.00;;
33104;SDS011;19476;51.448;6.674;2023-02-25T19:55:03;2.67;;;1.00;;
33104;SDS011;19476;51.448;6.674;2023-02-25T19:57:30;2.83;;;0.90;;
33104;SDS011;19476;51.448;6.674;2023-02-25T19:59:56;4.03;;;1.17;;
33104;SDS011;19476;51.448;6.674;2023-02-25T20:02:22;3.05;;;1.15;;
33104;SDS011;19476;51.448;6.674;2023-02-25T20:04:48;3.28;;;1.00;;